Aérodrome :
LOGIN :

S'inscrire | Disclaimer

   EN    FR    IT 

 










Légende :    VFR   VFR Marginal   IFR   IFR Intensif   IFR Très Intensif
Visi : 
Plafond : 
>= 8 km
>= 3000ft
5 à 8 km
1000 à 3000 ft
1500m à 5 km
500 à 1000 ft
800 à 1500m
200 à 500 ft
< 800m
< 200 ft
Symboles :   Orages  Brouillard  Fortes neiges  Fortes précipitations  Vent > 20 kt
SIGMETs :   Divers  Orages  Givrage  Turbulence  Onde Orograph.  Cendres Volcan.







- Altitude de l'aérodrome : -11 ft
- Code IATA : AMS


EHAM - Amsterdam Schiphol

DERNIER METAR :
  • 231125Z 31006KT 240V360 9999 FEW030 17/09 Q1027 NOSIG

METARs EXPIRÉS :
  • 231055Z 30007KT 270V360 9999 FEW026 17/10 Q1027 NOSIG
  • 231025Z 31008KT 260V340 9999 FEW022 16/10 Q1027 NOSIG
  • 230955Z 30007KT 260V340 9999 SCT020 16/10 Q1027 NOSIG
  • 230925Z 32008KT 280V340 9999 SCT020 BKN049 15/10 Q1027 NOSIG
  • 230855Z 30009KT 9999 BKN019 BKN049 15/10 Q1027 BECMG SCT025

TAF TAF EHAM
Valide du 23 à 12h jusqu'au 24 à 18h UTC


231108Z 2312/2418 28010KT 9999 SCT020
BECMG 2318/2321 33005KT
BECMG 2406/2409 33012KT
Pas de NOTAMs connus pour ce terrain.



MET'MAP, la Météo Aéronautique d'un coup d'oeil ! - Copyright ORBIFLY Décembre 2007 - Disclaimer

ORBIFLY MET'MAP TEAM :

Programmation & Développement : Alexandra Zaïnal
Conception & Développement : Baudouin d'Aumeries
Co-Programmation & Développement : Marc-Olivier Méhu
Soutien technique & logistique : Manuel Goepfert

Contact : metmap@orbifly.com




SOURCES & CREDITS :

   NOAA